Time;durP1;ratioP1;P1;durP2;ratioP2;P2;SDS_P1;SDS_P2;PMS_P1;PMS_P2;Temp;Humidity;BMP_temperature;BMP_pressure;BME280_temperature;BME280_humidity;BME280_pressure;Samples;Min_cycle;Max_cycle;Signal;HPM_P1;HPM_P2
2022/12/24 00:00:00;;;;;;;7.57;6.10;;;;;;;;;;5113294;28;20211;-84
2022/12/24 00:02:28;;;;;;;5.93;4.93;;;;;;;;;;5096010;28;20211;-84
2022/12/24 00:04:55;;;;;;;5.57;4.87;;;;;;;;;;5112913;28;20259;-84
2022/12/24 00:07:23;;;;;;;5.67;5.13;;;;;;;;;;5112056;28;20248;-84
2022/12/24 00:09:50;;;;;;;7.03;5.20;;;;;;;;;;5112966;27;20199;-84
2022/12/24 00:12:17;;;;;;;6.20;4.57;;;;;;;;;;5091737;28;20277;-84
2022/12/24 00:14:45;;;;;;;7.20;5.37;;;;;;;;;;5098643;28;20339;-84
2022/12/24 00:17:12;;;;;;;6.67;5.90;;;;;;;;;;5099855;28;20228;-84
2022/12/24 00:19:39;;;;;;;6.70;5.60;;;;;;;;;;5112044;28;20268;-84
2022/12/24 00:22:06;;;;;;;8.17;5.00;;;;;;;;;;5112287;28;20253;-83
2022/12/24 00:24:33;;;;;;;6.77;5.53;;;;;;;;;;5111924;28;20204;-83
2022/12/24 00:27:01;;;;;;;4.70;4.20;;;;;;;;;;5094471;28;20219;-83
2022/12/24 00:29:27;;;;;;;5.80;4.10;;;;;;;;;;5111757;28;20233;-83
2022/12/24 00:31:56;;;;;;;5.50;4.90;;;;;;;;;;5111485;28;20200;-84
2022/12/24 00:34:23;;;;;;;6.17;5.13;;;;;;;;;;5112571;28;20196;-83
2022/12/24 00:36:50;;;;;;;9.67;6.40;;;;;;;;;;5112398;28;20288;-83
2022/12/24 00:39:18;;;;;;;10.17;8.23;;;;;;;;;;5111761;28;20257;-83
2022/12/24 00:41:45;;;;;;;7.83;6.57;;;;;;;;;;5110738;28;20211;-84
2022/12/24 00:44:12;;;;;;;8.20;6.30;;;;;;;;;;5099916;28;20211;-83
2022/12/24 00:46:40;;;;;;;6.27;4.83;;;;;;;;;;5112298;28;20256;-84
2022/12/24 00:49:10;;;;;;;7.40;5.50;;;;;;;;;;5112367;28;20261;-83
2022/12/24 00:51:38;;;;;;;6.43;5.83;;;;;;;;;;5111571;28;20214;-83
2022/12/24 00:54:05;;;;;;;8.10;6.30;;;;;;;;;;5112313;28;20677;-84
2022/12/24 00:56:32;;;;;;;10.43;7.43;;;;;;;;;;5106615;28;20292;-84
2022/12/24 00:58:59;;;;;;;14.77;8.83;;;;;;;;;;5111086;28;20203;-84
2022/12/24 01:01:26;;;;;;;89.87;42.90;;;;;;;;;;5110743;28;20203;-84
2022/12/24 01:05:09;;;;;;;75.57;37.43;;;;;;;;;;5101806;28;20208;-84
2022/12/24 01:06:40;;;;;;;153.37;79.20;;;;;;;;;;5099687;28;20240;-83
2022/12/24 01:09:07;;;;;;;175.30;93.13;;;;;;;;;;5081036;28;20205;-84
2022/12/24 01:11:34;;;;;;;15.17;10.77;;;;;;;;;;5111923;28;20287;-84
2022/12/24 01:14:01;;;;;;;24.50;16.40;;;;;;;;;;5110891;28;20207;-84
2022/12/24 01:16:29;;;;;;;16.27;11.13;;;;;;;;;;5112242;27;20239;-83
2022/12/24 01:18:56;;;;;;;8.33;6.27;;;;;;;;;;5111127;28;20685;-84
2022/12/24 01:21:24;;;;;;;12.80;8.80;;;;;;;;;;5112044;28;20802;-85
2022/12/24 01:23:52;;;;;;;20.97;15.20;;;;;;;;;;5106421;28;20211;-83
2022/12/24 01:26:20;;;;;;;69.67;43.60;;;;;;;;;;5099313;28;20203;-82
2022/12/24 01:28:47;;;;;;;29.70;18.87;;;;;;;;;;5095868;28;20226;-83
2022/12/24 01:31:15;;;;;;;15.17;8.17;;;;;;;;;;5100043;28;20239;-85
2022/12/24 01:33:43;;;;;;;9.07;6.57;;;;;;;;;;5110594;28;20208;-86
2022/12/24 01:36:11;;;;;;;8.33;6.17;;;;;;;;;;5112040;28;20275;-84
2022/12/24 01:38:38;;;;;;;8.80;6.13;;;;;;;;;;5111412;28;20211;-84
2022/12/24 01:43:52;;;;;;;7.87;5.83;;;;;;;;;;5098851;28;20210;-83
2022/12/24 01:46:23;;;;;;;8.53;6.37;;;;;;;;;;5107933;28;20229;-83
2022/12/24 01:48:52;;;;;;;6.53;5.50;;;;;;;;;;5093864;28;20196;-83
2022/12/24 01:51:24;;;;;;;8.00;5.63;;;;;;;;;;5106718;28;20204;-83
2022/12/24 01:53:53;;;;;;;8.47;5.03;;;;;;;;;;5110344;28;20601;-84
2022/12/24 01:56:22;;;;;;;7.47;6.13;;;;;;;;;;5109485;28;20590;-85
2022/12/24 01:58:54;;;;;;;7.17;5.53;;;;;;;;;;5112014;28;20211;-84
2022/12/24 02:01:21;;;;;;;7.33;5.60;;;;;;;;;;5080049;28;20623;-85
2022/12/24 02:03:47;;;;;;;5.40;4.90;;;;;;;;;;5110231;28;20256;-85
2022/12/24 02:06:16;;;;;;;6.23;5.63;;;;;;;;;;5111220;28;20586;-85
2022/12/24 02:08:44;;;;;;;6.57;4.57;;;;;;;;;;5105891;28;20207;-88
2022/12/24 02:11:13;;;;;;;5.47;4.50;;;;;;;;;;5095290;28;20220;-84
2022/12/24 02:13:42;;;;;;;5.77;4.47;;;;;;;;;;5111977;28;20242;-84
2022/12/24 02:16:17;;;;;;;5.20;4.30;;;;;;;;;;5096952;28;20231;-85
2022/12/24 02:18:50;;;;;;;6.53;5.00;;;;;;;;;;5111835;28;20202;-85
2022/12/24 02:21:29;;;;;;;6.10;4.70;;;;;;;;;;5110193;28;20204;-85
2022/12/24 02:24:28;;;;;;;6.57;4.80;;;;;;;;;;5111361;28;20688;-85
2022/12/24 02:27:12;;;;;;;7.20;5.00;;;;;;;;;;5089391;28;20204;-84
2022/12/24 02:30:01;;;;;;;6.03;4.80;;;;;;;;;;5106989;28;20203;-84
2022/12/24 02:32:34;;;;;;;7.70;5.73;;;;;;;;;;5110310;28;20210;-84
2022/12/24 02:35:04;;;;;;;67.80;38.17;;;;;;;;;;5108357;28;20589;-84
2022/12/24 02:37:34;;;;;;;32.40;21.00;;;;;;;;;;5105641;28;20315;-83
2022/12/24 02:40:06;;;;;;;15.17;11.00;;;;;;;;;;5109220;28;20196;-85
2022/12/24 02:42:38;;;;;;;11.00;8.27;;;;;;;;;;5111456;28;20199;-84
2022/12/24 02:45:08;;;;;;;12.73;7.77;;;;;;;;;;5110512;28;20203;-85
2022/12/24 02:47:36;;;;;;;10.80;8.77;;;;;;;;;;5111067;28;20207;-84
2022/12/24 02:50:04;;;;;;;8.60;5.80;;;;;;;;;;5109609;28;20203;-84
2022/12/24 02:52:34;;;;;;;5.90;5.10;;;;;;;;;;5099948;28;20628;-84
2022/12/24 02:55:03;;;;;;;7.73;6.00;;;;;;;;;;5108147;28;20702;-84
2022/12/24 02:57:42;;;;;;;23.33;15.27;;;;;;;;;;5096558;28;20223;-84
2022/12/24 03:00:13;;;;;;;10.23;8.17;;;;;;;;;;5096182;28;20199;-84
2022/12/24 03:02:51;;;;;;;9.70;5.23;;;;;;;;;;5092894;28;20199;-85
2022/12/24 03:05:22;;;;;;;4.83;4.40;;;;;;;;;;5106844;28;20215;-84
2022/12/24 03:07:58;;;;;;;6.70;4.63;;;;;;;;;;5089091;28;20214;-84
2022/12/24 03:10:31;;;;;;;5.80;5.00;;;;;;;;;;5109236;28;20203;-84
2022/12/24 03:13:01;;;;;;;6.87;6.17;;;;;;;;;;5109313;28;20632;-85
2022/12/24 03:15:32;;;;;;;6.50;5.63;;;;;;;;;;5101846;28;20770;-84
2022/12/24 03:18:01;;;;;;;7.13;6.33;;;;;;;;;;5117198;27;20656;-83
2022/12/24 03:20:32;;;;;;;6.27;5.07;;;;;;;;;;5113263;28;20257;-84
2022/12/24 03:23:01;;;;;;;6.10;4.73;;;;;;;;;;5119227;27;20211;-84
2022/12/24 03:25:28;;;;;;;7.70;4.63;;;;;;;;;;5110462;27;20213;-84
2022/12/24 03:27:56;;;;;;;5.80;5.17;;;;;;;;;;5109419;27;20196;-84
2022/12/24 03:30:24;;;;;;;7.00;5.47;;;;;;;;;;5099064;28;20203;-84
2022/12/24 03:32:54;;;;;;;5.50;4.90;;;;;;;;;;5110610;27;20203;-86
2022/12/24 03:35:21;;;;;;;7.37;4.73;;;;;;;;;;5108034;27;20210;-85
2022/12/24 03:37:49;;;;;;;8.13;5.50;;;;;;;;;;5116318;27;20744;-84
2022/12/24 03:40:16;;;;;;;7.07;4.83;;;;;;;;;;5115144;27;20260;-85
2022/12/24 03:42:42;;;;;;;6.53;5.03;;;;;;;;;;5114228;28;20203;-86
2022/12/24 03:45:10;;;;;;;7.57;6.73;;;;;;;;;;5101043;28;20205;-85
2022/12/24 03:47:37;;;;;;;7.13;5.60;;;;;;;;;;5113895;27;20199;-83
2022/12/24 03:50:08;;;;;;;7.60;4.90;;;;;;;;;;5110097;28;20647;-84
2022/12/24 03:52:35;;;;;;;7.10;5.07;;;;;;;;;;5097819;28;20226;-85
2022/12/24 03:55:02;;;;;;;5.27;4.77;;;;;;;;;;5114071;27;20251;-86
2022/12/24 03:57:29;;;;;;;5.50;4.17;;;;;;;;;;5103349;27;20226;-85
2022/12/24 03:59:56;;;;;;;6.37;4.90;;;;;;;;;;5106345;28;20685;-85
2022/12/24 04:02:22;;;;;;;5.20;4.67;;;;;;;;;;5109001;28;20212;-86
2022/12/24 04:04:52;;;;;;;5.33;4.17;;;;;;;;;;5104757;28;20260;-85
2022/12/24 04:07:21;;;;;;;5.77;4.33;;;;;;;;;;5107103;28;20204;-87
2022/12/24 04:09:47;;;;;;;5.13;4.43;;;;;;;;;;5105932;28;20207;-86
2022/12/24 04:12:14;;;;;;;4.23;3.83;;;;;;;;;;5098576;27;20256;-88
2022/12/24 04:14:41;;;;;;;4.57;4.03;;;;;;;;;;5111985;28;20577;-86
2022/12/24 04:17:08;;;;;;;5.27;4.20;;;;;;;;;;5091785;28;20220;-87
2022/12/24 04:19:35;;;;;;;4.53;3.50;;;;;;;;;;5106704;28;20207;-88
2022/12/24 04:22:03;;;;;;;4.30;3.90;;;;;;;;;;5078579;28;20267;-87
2022/12/24 04:24:34;;;;;;;4.07;3.70;;;;;;;;;;5106462;28;20203;-87
2022/12/24 04:27:01;;;;;;;7.67;4.33;;;;;;;;;;5102127;27;20217;-87
2022/12/24 04:29:28;;;;;;;4.97;3.73;;;;;;;;;;5106444;27;20207;-90
2022/12/24 04:31:55;;;;;;;5.43;3.77;;;;;;;;;;5111616;28;20215;-87
2022/12/24 04:34:22;;;;;;;5.23;4.20;;;;;;;;;;5091749;28;20212;-86
2022/12/24 04:36:49;;;;;;;4.40;3.93;;;;;;;;;;5104565;28;20233;-86
2022/12/24 04:39:16;;;;;;;4.53;3.97;;;;;;;;;;5111346;28;20258;-87
2022/12/24 04:41:45;;;;;;;5.87;4.63;;;;;;;;;;5105066;28;20207;-87
2022/12/24 04:44:12;;;;;;;5.43;3.57;;;;;;;;;;5111066;28;20204;-86
2022/12/24 04:46:41;;;;;;;5.10;4.43;;;;;;;;;;5110932;28;20261;-86
2022/12/24 04:49:08;;;;;;;5.67;3.97;;;;;;;;;;5112388;28;20208;-86
2022/12/24 04:51:35;;;;;;;4.73;3.93;;;;;;;;;;5112084;28;20207;-86
2022/12/24 04:54:02;;;;;;;4.90;3.70;;;;;;;;;;5099807;28;20195;-86
2022/12/24 04:56:30;;;;;;;3.50;3.17;;;;;;;;;;5112210;28;20278;-87
2022/12/24 04:59:03;;;;;;;4.80;4.30;;;;;;;;;;5110444;28;20238;-85
2022/12/24 05:01:31;;;;;;;5.03;4.47;;;;;;;;;;5104133;28;20729;-87
2022/12/24 05:03:59;;;;;;;4.93;3.90;;;;;;;;;;5110853;28;20207;-87
2022/12/24 05:06:29;;;;;;;4.83;4.33;;;;;;;;;;5112020;28;20207;-86
2022/12/24 05:08:57;;;;;;;6.47;5.13;;;;;;;;;;5112765;28;20207;-86
2022/12/24 05:11:25;;;;;;;18.43;13.67;;;;;;;;;;5112368;28;20208;-86
2022/12/24 05:13:53;;;;;;;23.03;14.57;;;;;;;;;;5112418;27;20203;-86
2022/12/24 05:16:22;;;;;;;10.87;8.20;;;;;;;;;;5111880;28;20234;-87
2022/12/24 05:18:49;;;;;;;28.13;20.17;;;;;;;;;;5097963;28;20232;-88
2022/12/24 05:21:21;;;;;;;26.83;19.50;;;;;;;;;;5108837;28;20615;-87
2022/12/24 05:26:36;;;;;;;4.07;3.63;;;;;;;;;;5101237;28;20249;-86
2022/12/24 05:29:07;;;;;;;7.17;4.93;;;;;;;;;;5108641;28;20203;-85
2022/12/24 05:31:35;;;;;;;9.93;7.10;;;;;;;;;;5095292;28;20199;-86
2022/12/24 05:34:03;;;;;;;24.73;15.63;;;;;;;;;;5100068;28;20207;-86
2022/12/24 05:36:30;;;;;;;15.20;9.80;;;;;;;;;;5104100;28;20205;-86
2022/12/24 05:38:58;;;;;;;22.00;13.53;;;;;;;;;;5098797;28;20223;-87
2022/12/24 05:41:24;;;;;;;78.33;45.27;;;;;;;;;;5099448;28;20210;-85
2022/12/24 05:43:51;;;;;;;37.47;21.67;;;;;;;;;;5107419;28;20762;-85
2022/12/24 05:46:20;;;;;;;17.60;11.00;;;;;;;;;;5102438;28;20203;-86
2022/12/24 05:48:49;;;;;;;7.57;5.77;;;;;;;;;;5101014;28;20329;-88
2022/12/24 05:51:18;;;;;;;7.07;4.20;;;;;;;;;;5104568;28;20199;-87
2022/12/24 05:53:46;;;;;;;6.50;4.70;;;;;;;;;;5108420;28;20658;-87
2022/12/24 05:56:15;;;;;;;5.23;3.83;;;;;;;;;;5101482;28;20200;-87
2022/12/24 05:58:43;;;;;;;5.17;4.13;;;;;;;;;;5098820;28;20637;-86
2022/12/24 06:01:11;;;;;;;6.23;4.13;;;;;;;;;;5099200;28;20208;-87
2022/12/24 06:03:38;;;;;;;4.70;4.23;;;;;;;;;;5102450;28;20210;-85
2022/12/24 06:06:09;;;;;;;6.27;5.67;;;;;;;;;;5107839;28;20214;-85
2022/12/24 06:08:37;;;;;;;15.83;11.27;;;;;;;;;;5100535;28;20217;-86
2022/12/24 06:11:07;;;;;;;20.70;15.27;;;;;;;;;;5111421;28;20208;-85
2022/12/24 06:13:34;;;;;;;17.07;12.70;;;;;;;;;;5103615;28;20294;-84
2022/12/24 06:16:04;;;;;;;13.03;9.60;;;;;;;;;;5096269;28;20239;-87
2022/12/24 06:18:32;;;;;;;7.87;6.97;;;;;;;;;;5110000;28;21733;-86
2022/12/24 06:21:00;;;;;;;7.27;6.27;;;;;;;;;;5104314;28;20211;-86
2022/12/24 06:23:31;;;;;;;5.73;4.57;;;;;;;;;;5096684;28;20195;-84
2022/12/24 06:25:59;;;;;;;22.03;12.50;;;;;;;;;;5111084;28;20256;-84
2022/12/24 06:28:27;;;;;;;76.17;45.73;;;;;;;;;;5092833;28;20196;-84
2022/12/24 06:30:54;;;;;;;101.10;58.20;;;;;;;;;;5106275;28;20264;-85
2022/12/24 06:33:21;;;;;;;46.67;28.70;;;;;;;;;;5103401;28;20200;-86
2022/12/24 06:35:49;;;;;;;22.43;16.00;;;;;;;;;;5110198;28;20203;-91
2022/12/24 06:38:16;;;;;;;26.07;17.20;;;;;;;;;;5110892;28;20705;-84
2022/12/24 06:40:46;;;;;;;28.70;17.97;;;;;;;;;;5111213;28;20211;-83
2022/12/24 06:43:14;;;;;;;47.87;31.13;;;;;;;;;;5110587;28;20233;-85
2022/12/24 06:45:45;;;;;;;35.80;26.70;;;;;;;;;;5092746;28;20258;-85
2022/12/24 06:48:12;;;;;;;20.67;15.93;;;;;;;;;;5112382;28;20206;-84
2022/12/24 06:50:42;;;;;;;17.27;13.20;;;;;;;;;;5115042;28;20658;-84
2022/12/24 06:53:09;;;;;;;15.40;9.13;;;;;;;;;;5101475;28;20265;-85
2022/12/24 06:55:43;;;;;;;7.20;6.50;;;;;;;;;;5113983;28;20712;-83
2022/12/24 06:58:11;;;;;;;33.13;22.53;;;;;;;;;;5115085;28;20215;-83
2022/12/24 07:00:40;;;;;;;14.33;10.50;;;;;;;;;;5113693;28;20247;-85
2022/12/24 07:03:07;;;;;;;7.20;6.13;;;;;;;;;;5114647;28;20207;-85
2022/12/24 07:05:33;;;;;;;9.57;6.97;;;;;;;;;;5114177;28;20266;-85
2022/12/24 07:08:00;;;;;;;11.47;8.77;;;;;;;;;;5101226;28;20588;-85
2022/12/24 07:10:27;;;;;;;11.87;9.73;;;;;;;;;;5102319;28;20215;-85
2022/12/24 07:12:57;;;;;;;10.47;8.10;;;;;;;;;;5112307;28;20256;-85
2022/12/24 07:15:25;;;;;;;6.50;5.83;;;;;;;;;;5096336;28;20288;-85
2022/12/24 07:17:52;;;;;;;9.50;7.37;;;;;;;;;;5100922;27;20208;-84
2022/12/24 07:20:18;;;;;;;6.00;5.27;;;;;;;;;;5096072;28;20204;-85
2022/12/24 07:22:45;;;;;;;7.73;5.30;;;;;;;;;;5114880;27;20279;-88
2022/12/24 07:25:12;;;;;;;9.77;6.90;;;;;;;;;;5113966;28;20290;-83
2022/12/24 07:27:39;;;;;;;9.50;7.37;;;;;;;;;;5114287;28;20200;-82
2022/12/24 07:30:10;;;;;;;8.53;7.47;;;;;;;;;;5097907;28;20204;-83
2022/12/24 07:32:38;;;;;;;10.10;8.63;;;;;;;;;;5103864;28;20203;-83
2022/12/24 07:35:05;;;;;;;8.83;6.97;;;;;;;;;;5114397;28;20199;-83
2022/12/24 07:37:32;;;;;;;8.40;6.03;;;;;;;;;;5117677;27;20218;-83
2022/12/24 07:40:00;;;;;;;7.50;5.50;;;;;;;;;;5119996;27;20231;-83
2022/12/24 07:42:27;;;;;;;9.53;6.47;;;;;;;;;;5099054;28;20196;-83
2022/12/24 07:44:54;;;;;;;11.30;9.60;;;;;;;;;;5112887;28;20207;-84
2022/12/24 07:47:22;;;;;;;23.03;15.33;;;;;;;;;;5113300;28;20682;-84
2022/12/24 07:49:49;;;;;;;18.90;13.73;;;;;;;;;;5111592;28;20276;-84
2022/12/24 07:52:16;;;;;;;16.67;11.87;;;;;;;;;;5101665;28;20207;-87
2022/12/24 07:54:43;;;;;;;13.17;11.00;;;;;;;;;;5114052;28;20204;-83
2022/12/24 07:57:10;;;;;;;13.23;9.73;;;;;;;;;;5112541;28;20210;-82
2022/12/24 07:59:38;;;;;;;17.03;12.93;;;;;;;;;;5111859;28;20235;-83
2022/12/24 08:02:05;;;;;;;14.93;11.70;;;;;;;;;;5100082;28;20204;-84
2022/12/24 08:04:35;;;;;;;14.90;10.77;;;;;;;;;;5103865;28;20212;-83
2022/12/24 08:07:02;;;;;;;14.70;11.30;;;;;;;;;;5112577;28;20195;-83
2022/12/24 08:09:31;;;;;;;16.50;11.50;;;;;;;;;;5103735;28;20203;-83
2022/12/24 08:11:58;;;;;;;16.23;11.47;;;;;;;;;;5094824;28;20620;-83
2022/12/24 08:14:28;;;;;;;9.87;8.33;;;;;;;;;;5112931;28;20244;-83
2022/12/24 08:16:55;;;;;;;10.17;8.23;;;;;;;;;;5111956;28;20218;-83
2022/12/24 08:19:23;;;;;;;11.50;6.10;;;;;;;;;;5113338;28;20239;-84
2022/12/24 08:21:51;;;;;;;8.07;6.23;;;;;;;;;;5112367;28;20211;-85
2022/12/24 08:24:18;;;;;;;7.43;6.17;;;;;;;;;;5110909;28;20191;-85
2022/12/24 08:26:45;;;;;;;6.10;5.50;;;;;;;;;;5107621;28;20199;-84
2022/12/24 08:29:12;;;;;;;6.33;5.23;;;;;;;;;;5111516;28;20207;-85
2022/12/24 08:31:39;;;;;;;6.47;5.50;;;;;;;;;;5113000;28;20200;-84
2022/12/24 08:34:07;;;;;;;5.03;4.63;;;;;;;;;;5111856;28;20196;-84
2022/12/24 08:36:35;;;;;;;4.73;4.23;;;;;;;;;;5102465;28;20740;-84
2022/12/24 08:39:04;;;;;;;4.83;4.30;;;;;;;;;;5104837;28;20224;-85
2022/12/24 08:41:31;;;;;;;9.70;7.70;;;;;;;;;;5107043;28;20256;-86
2022/12/24 08:43:58;;;;;;;21.67;7.20;;;;;;;;;;5109132;28;20215;-85
2022/12/24 08:46:24;;;;;;;6.73;6.00;;;;;;;;;;5112628;28;20211;-84
2022/12/24 08:48:51;;;;;;;7.47;5.43;;;;;;;;;;5113023;27;20212;-85
2022/12/24 08:51:18;;;;;;;8.90;5.77;;;;;;;;;;5111054;28;20203;-85
2022/12/24 08:53:46;;;;;;;4.33;3.67;;;;;;;;;;5108084;28;20269;-85
2022/12/24 08:56:14;;;;;;;5.20;4.70;;;;;;;;;;5108652;28;20208;-84
2022/12/24 08:58:42;;;;;;;11.40;7.60;;;;;;;;;;5104306;28;20227;-84
2022/12/24 09:01:15;;;;;;;5.27;4.77;;;;;;;;;;5111888;28;20264;-85
2022/12/24 09:03:42;;;;;;;5.53;3.93;;;;;;;;;;5111617;28;20199;-85
2022/12/24 09:06:09;;;;;;;4.93;3.77;;;;;;;;;;5112227;28;20211;-84
2022/12/24 09:08:37;;;;;;;4.77;3.90;;;;;;;;;;5112299;28;20200;-84
2022/12/24 09:11:06;;;;;;;4.43;2.93;;;;;;;;;;5111257;28;20199;-85
2022/12/24 09:13:38;;;;;;;5.00;4.53;;;;;;;;;;5110395;28;20231;-84
2022/12/24 09:16:06;;;;;;;3.87;3.53;;;;;;;;;;5112236;28;20231;-84
2022/12/24 09:18:33;;;;;;;4.40;3.93;;;;;;;;;;5112552;28;20256;-84
2022/12/24 09:21:06;;;;;;;4.27;3.87;;;;;;;;;;5077656;28;20591;-85
2022/12/24 09:23:41;;;;;;;5.63;3.90;;;;;;;;;;5112399;27;20635;-84
2022/12/24 09:26:13;;;;;;;5.37;3.60;;;;;;;;;;5110644;28;20740;-84
2022/12/24 09:28:41;;;;;;;4.10;3.50;;;;;;;;;;5111013;28;20619;-85
2022/12/24 09:31:14;;;;;;;4.17;3.60;;;;;;;;;;5111234;28;20199;-84
2022/12/24 09:33:43;;;;;;;4.30;3.67;;;;;;;;;;5110905;27;20241;-85
2022/12/24 09:36:10;;;;;;;3.37;3.00;;;;;;;;;;5122248;27;20203;-84
2022/12/24 09:38:39;;;;;;;3.57;3.13;;;;;;;;;;5111748;28;20206;-83
2022/12/24 09:41:13;;;;;;;3.53;3.17;;;;;;;;;;5110901;27;20203;-84
2022/12/24 09:43:46;;;;;;;3.83;3.53;;;;;;;;;;5110783;28;20211;-84
2022/12/24 09:46:18;;;;;;;3.23;2.93;;;;;;;;;;5110226;27;20257;-87
2022/12/24 09:48:47;;;;;;;5.53;4.57;;;;;;;;;;5108785;27;20685;-83
2022/12/24 09:51:21;;;;;;;3.67;3.33;;;;;;;;;;5103989;28;20199;-84
2022/12/24 09:53:50;;;;;;;3.30;3.00;;;;;;;;;;5107363;27;20199;-83
2022/12/24 09:56:20;;;;;;;3.13;2.83;;;;;;;;;;5130077;27;20588;-84
2022/12/24 09:58:49;;;;;;;3.60;3.30;;;;;;;;;;5102790;28;20208;-84
2022/12/24 10:01:18;;;;;;;4.00;3.60;;;;;;;;;;5110688;28;20207;-83
2022/12/24 10:03:45;;;;;;;3.80;3.40;;;;;;;;;;5111307;28;20203;-83
2022/12/24 10:06:15;;;;;;;4.00;3.50;;;;;;;;;;5105264;27;20693;-83
2022/12/24 10:08:53;;;;;;;3.77;3.17;;;;;;;;;;5105609;28;20275;-85
2022/12/24 10:11:24;;;;;;;6.33;4.00;;;;;;;;;;5100517;27;20199;-81
2022/12/24 10:14:03;;;;;;;4.90;4.40;;;;;;;;;;5104816;27;20298;-82
2022/12/24 10:16:40;;;;;;;9.97;7.60;;;;;;;;;;5085515;27;20265;-81
2022/12/24 10:19:14;;;;;;;10.17;8.47;;;;;;;;;;5085508;28;20272;-81
2022/12/24 10:21:47;;;;;;;10.10;9.07;;;;;;;;;;5107699;28;20210;-83
2022/12/24 10:24:18;;;;;;;11.10;7.83;;;;;;;;;;5106601;28;20208;-81
2022/12/24 10:26:46;;;;;;;8.03;5.70;;;;;;;;;;5114330;28;20256;-82
2022/12/24 10:29:18;;;;;;;15.13;8.40;;;;;;;;;;5116999;28;20622;-81
2022/12/24 10:31:55;;;;;;;8.37;7.10;;;;;;;;;;5116584;28;20199;-82
2022/12/24 10:34:24;;;;;;;9.47;8.07;;;;;;;;;;5117901;27;20689;-87
2022/12/24 10:36:52;;;;;;;14.50;8.10;;;;;;;;;;5102502;28;20210;-82
2022/12/24 10:39:21;;;;;;;13.80;9.43;;;;;;;;;;5117596;27;20612;-83
2022/12/24 10:41:51;;;;;;;14.03;9.83;;;;;;;;;;5121452;27;20204;-82
2022/12/24 10:44:24;;;;;;;15.23;10.33;;;;;;;;;;5118322;27;20680;-83
2022/12/24 10:46:51;;;;;;;22.80;14.37;;;;;;;;;;5100836;28;20191;-82
2022/12/24 10:49:24;;;;;;;22.13;17.03;;;;;;;;;;5110693;28;20279;-82
2022/12/24 10:51:54;;;;;;;41.80;29.40;;;;;;;;;;5111860;27;20196;-82
2022/12/24 10:54:23;;;;;;;44.67;34.73;;;;;;;;;;5123514;27;20203;-82
2022/12/24 10:56:51;;;;;;;44.37;30.97;;;;;;;;;;5117392;27;20207;-82
2022/12/24 10:59:30;;;;;;;37.77;25.60;;;;;;;;;;5117890;27;20201;-81
2022/12/24 11:01:58;;;;;;;25.13;19.53;;;;;;;;;;5107904;27;20604;-83
2022/12/24 11:04:27;;;;;;;37.13;28.83;;;;;;;;;;5117713;27;20561;-84
2022/12/24 11:06:56;;;;;;;31.47;25.67;;;;;;;;;;5099319;28;20208;-83
2022/12/24 11:09:26;;;;;;;20.73;17.10;;;;;;;;;;5116381;28;20255;-84
2022/12/24 11:11:53;;;;;;;20.87;14.20;;;;;;;;;;5117188;27;20252;-82
2022/12/24 11:14:21;;;;;;;27.53;22.17;;;;;;;;;;5116274;28;20635;-82
2022/12/24 11:16:53;;;;;;;25.50;16.40;;;;;;;;;;5116196;28;20312;-82
2022/12/24 11:19:29;;;;;;;19.37;15.53;;;;;;;;;;5117432;27;20299;-82
2022/12/24 11:22:03;;;;;;;17.37;14.43;;;;;;;;;;5104428;28;20199;-84
2022/12/24 11:24:31;;;;;;;20.67;16.13;;;;;;;;;;5102978;27;20894;-82
2022/12/24 11:27:23;;;;;;;18.63;13.43;;;;;;;;;;5117252;27;20629;-83
2022/12/24 11:29:50;;;;;;;22.77;16.40;;;;;;;;;;5117421;27;20256;-82
2022/12/24 11:32:20;;;;;;;19.20;14.67;;;;;;;;;;5117457;27;20199;-82
2022/12/24 11:34:47;;;;;;;17.07;13.50;;;;;;;;;;5113241;27;20210;-82
2022/12/24 11:37:17;;;;;;;16.13;12.53;;;;;;;;;;5113893;28;20733;-83
2022/12/24 11:39:47;;;;;;;21.47;16.17;;;;;;;;;;5094326;28;20216;-82
2022/12/24 11:42:26;;;;;;;15.10;10.73;;;;;;;;;;5094624;28;20329;-82
2022/12/24 11:44:55;;;;;;;13.57;11.63;;;;;;;;;;5104606;28;20216;-82
2022/12/24 11:47:32;;;;;;;14.37;11.63;;;;;;;;;;5110278;28;20594;-83
2022/12/24 11:50:23;;;;;;;19.57;14.80;;;;;;;;;;5113990;28;20206;-83
2022/12/24 11:52:53;;;;;;;18.23;15.93;;;;;;;;;;5102038;28;20228;-82
2022/12/24 11:55:26;;;;;;;72.67;47.80;;;;;;;;;;5098551;28;20215;-83
2022/12/24 11:57:57;;;;;;;32.53;22.90;;;;;;;;;;5108740;28;20320;-83
2022/12/24 12:00:28;;;;;;;21.83;17.20;;;;;;;;;;5113619;28;20220;-83
2022/12/24 12:03:00;;;;;;;19.63;15.30;;;;;;;;;;5114078;28;20222;-85
2022/12/24 12:05:29;;;;;;;21.67;16.80;;;;;;;;;;5108598;28;20609;-83
2022/12/24 12:07:59;;;;;;;31.97;21.70;;;;;;;;;;5114974;27;20195;-85
2022/12/24 12:10:30;;;;;;;19.27;15.03;;;;;;;;;;5111751;27;20210;-82
2022/12/24 12:13:00;;;;;;;16.17;11.80;;;;;;;;;;5106236;27;20744;-83
2022/12/24 12:15:29;;;;;;;11.83;7.07;;;;;;;;;;5106400;28;20322;-85
2022/12/24 12:18:03;;;;;;;8.33;5.50;;;;;;;;;;5099507;28;20200;-84
2022/12/24 12:20:33;;;;;;;25.67;14.50;;;;;;;;;;5111911;28;20225;-82
2022/12/24 12:23:03;;;;;;;21.20;12.83;;;;;;;;;;5112621;28;20202;-82
2022/12/24 12:25:34;;;;;;;20.60;13.80;;;;;;;;;;5097983;28;20202;-82
2022/12/24 12:28:02;;;;;;;13.40;9.83;;;;;;;;;;5111782;28;20252;-83
2022/12/24 12:30:31;;;;;;;8.37;6.83;;;;;;;;;;5113093;28;20564;-82
2022/12/24 12:33:06;;;;;;;8.63;7.43;;;;;;;;;;5112923;28;20785;-83
2022/12/24 12:35:35;;;;;;;10.07;8.13;;;;;;;;;;5111734;28;20203;-79
2022/12/24 12:38:05;;;;;;;9.47;7.83;;;;;;;;;;5112453;28;20211;-81
2022/12/24 12:40:53;;;;;;;7.87;6.50;;;;;;;;;;5112546;27;20234;-83
2022/12/24 12:43:32;;;;;;;29.50;18.50;;;;;;;;;;5121580;27;20721;-78
2022/12/24 12:46:05;;;;;;;20.90;15.70;;;;;;;;;;5102557;28;20278;-80
2022/12/24 12:48:52;;;;;;;15.70;10.13;;;;;;;;;;5105368;28;20203;-81
2022/12/24 12:51:28;;;;;;;12.07;9.80;;;;;;;;;;5104265;28;20250;-80
2022/12/24 12:54:13;;;;;;;24.17;14.60;;;;;;;;;;5105587;28;20291;-80
2022/12/24 12:56:45;;;;;;;13.57;9.77;;;;;;;;;;5109058;28;20256;-80
2022/12/24 12:59:16;;;;;;;20.90;14.80;;;;;;;;;;5106595;28;20205;-82
2022/12/24 13:01:51;;;;;;;29.40;24.10;;;;;;;;;;5111780;28;20227;-81
2022/12/24 13:04:40;;;;;;;33.80;22.03;;;;;;;;;;5111818;28;20199;-82
2022/12/24 13:07:42;;;;;;;25.63;19.83;;;;;;;;;;5112183;28;20260;-81
2022/12/24 13:10:35;;;;;;;48.60;31.70;;;;;;;;;;5112202;28;20264;-81
2022/12/24 13:13:54;;;;;;;31.43;23.80;;;;;;;;;;5111841;28;20207;-80
2022/12/24 13:16:53;;;;;;;60.57;41.27;;;;;;;;;;5066139;28;20241;-79
2022/12/24 13:19:34;;;;;;;62.53;47.53;;;;;;;;;;5117441;27;20199;-80
2022/12/24 13:22:04;;;;;;;23.47;20.33;;;;;;;;;;5112114;27;20224;-79
2022/12/24 13:24:32;;;;;;;20.87;17.37;;;;;;;;;;5106459;27;20260;-78
2022/12/24 13:27:03;;;;;;;22.27;17.00;;;;;;;;;;5103400;28;20670;-83
2022/12/24 13:29:43;;;;;;;28.17;21.73;;;;;;;;;;5102417;28;20252;-79
2022/12/24 13:32:50;;;;;;;32.80;24.53;;;;;;;;;;5081300;28;20682;-77
2022/12/24 13:35:58;;;;;;;37.77;27.93;;;;;;;;;;5109197;27;20193;-79
2022/12/24 13:38:34;;;;;;;25.03;21.27;;;;;;;;;;5101711;28;20205;-80
2022/12/24 13:41:40;;;;;;;55.80;33.83;;;;;;;;;;5113913;27;20692;-82
2022/12/24 13:44:32;;;;;;;26.23;21.67;;;;;;;;;;5104475;28;20631;-80
2022/12/24 13:47:20;;;;;;;17.87;13.33;;;;;;;;;;5098384;28;20235;-82
2022/12/24 13:49:49;;;;;;;25.97;20.23;;;;;;;;;;5111655;28;20685;-80
2022/12/24 13:52:25;;;;;;;25.27;21.33;;;;;;;;;;5097268;28;20697;-81
2022/12/24 13:55:16;;;;;;;29.17;23.77;;;;;;;;;;5097228;28;20215;-81
2022/12/24 13:57:46;;;;;;;47.87;37.47;;;;;;;;;;5080471;28;20215;-80
2022/12/24 14:00:37;;;;;;;30.77;23.33;;;;;;;;;;5106815;28;20192;-80
2022/12/24 14:03:13;;;;;;;27.10;21.53;;;;;;;;;;5102486;28;20204;-80
2022/12/24 14:05:45;;;;;;;19.13;15.87;;;;;;;;;;5100315;28;20195;-81
2022/12/24 14:08:16;;;;;;;28.13;18.47;;;;;;;;;;5111338;28;20204;-80
2022/12/24 14:10:45;;;;;;;41.43;23.17;;;;;;;;;;5103450;28;20258;-81
2022/12/24 14:13:51;;;;;;;39.07;24.27;;;;;;;;;;5103581;28;20204;-80
2022/12/24 14:16:19;;;;;;;70.23;37.00;;;;;;;;;;5087605;28;20307;-80
2022/12/24 14:18:48;;;;;;;51.90;31.27;;;;;;;;;;5098280;28;20643;-81
2022/12/24 14:21:17;;;;;;;67.40;41.50;;;;;;;;;;5099599;28;20218;-80
2022/12/24 14:23:54;;;;;;;104.50;65.80;;;;;;;;;;5101635;28;20241;-81
2022/12/24 14:26:23;;;;;;;101.07;64.87;;;;;;;;;;5102815;28;20191;-80
2022/12/24 14:28:55;;;;;;;52.60;36.30;;;;;;;;;;5098151;28;20265;-81
2022/12/24 14:31:25;;;;;;;81.10;48.90;;;;;;;;;;5100939;28;20296;-80
2022/12/24 14:33:52;;;;;;;64.60;36.20;;;;;;;;;;5093186;28;20211;-80
2022/12/24 14:36:21;;;;;;;54.07;31.70;;;;;;;;;;5098953;28;20200;-80
2022/12/24 14:38:48;;;;;;;42.90;29.00;;;;;;;;;;5106491;28;20585;-79
2022/12/24 14:41:33;;;;;;;42.17;29.53;;;;;;;;;;5101054;28;20313;-79
2022/12/24 14:44:08;;;;;;;44.00;29.20;;;;;;;;;;5102263;28;20633;-82
2022/12/24 14:46:40;;;;;;;46.43;30.27;;;;;;;;;;5099269;28;20200;-80
2022/12/24 14:49:13;;;;;;;42.37;28.03;;;;;;;;;;5097663;28;20206;-81
2022/12/24 14:51:44;;;;;;;46.77;28.40;;;;;;;;;;5093516;28;20591;-78
2022/12/24 14:54:22;;;;;;;46.37;31.17;;;;;;;;;;5095023;28;20578;-78
2022/12/24 14:57:07;;;;;;;36.30;25.27;;;;;;;;;;5099338;28;20202;-79